Time;durP1;ratioP1;P1;durP2;ratioP2;P2;SDS_P1;SDS_P2;PMS_P1;PMS_P2;Temp;Humidity;BMP_temperature;BMP_pressure;BME280_temperature;BME280_humidity;BME280_pressure;Samples;Min_cycle;Max_cycle;Signal;HPM_P1;HPM_P2
2023/08/05 00:00:10;;;;;;;16.87;15.43;;;15.90;99.90;;;;;;5031411;28;20648;-77
2023/08/05 00:02:37;;;;;;;16.70;15.30;;;15.90;99.90;;;;;;5015776;28;20699;-77
2023/08/05 00:05:05;;;;;;;16.60;14.97;;;15.90;99.90;;;;;;5021669;28;20204;-77
2023/08/05 00:07:33;;;;;;;17.00;15.70;;;15.90;99.90;;;;;;5026154;28;20336;-77
2023/08/05 00:10:00;;;;;;;16.63;15.20;;;15.90;99.90;;;;;;5026076;28;20280;-77
2023/08/05 00:12:26;;;;;;;16.20;14.80;;;15.90;99.90;;;;;;5020256;28;20211;-77
2023/08/05 00:14:53;;;;;;;16.37;15.07;;;15.90;99.90;;;;;;5017540;28;20227;-77
2023/08/05 00:17:20;;;;;;;16.50;15.10;;;15.90;99.90;;;;;;5023049;28;20254;-77
2023/08/05 00:19:47;;;;;;;16.27;14.87;;;15.90;99.90;;;;;;5022542;28;20759;-77
2023/08/05 00:22:13;;;;;;;16.90;15.50;;;15.80;99.90;;;;;;5017033;28;20195;-77
2023/08/05 00:24:42;;;;;;;16.80;15.40;;;15.80;99.90;;;;;;5037590;28;20265;-77
2023/08/05 00:27:08;;;;;;;16.23;15.03;;;15.80;99.90;;;;;;5033195;28;20253;-77
2023/08/05 00:29:35;;;;;;;16.43;15.23;;;15.80;99.90;;;;;;5027834;28;20242;-77
2023/08/05 00:32:02;;;;;;;15.90;14.70;;;15.80;99.90;;;;;;5028085;28;20293;-77
2023/08/05 00:34:29;;;;;;;17.17;15.37;;;15.90;99.90;;;;;;5026245;28;20603;-77
2023/08/05 00:36:56;;;;;;;15.87;14.57;;;15.90;99.90;;;;;;5021496;28;20400;-77
2023/08/05 00:39:23;;;;;;;15.87;14.67;;;15.90;99.90;;;;;;5023419;28;20212;-77
2023/08/05 00:41:51;;;;;;;15.93;14.73;;;15.90;99.90;;;;;;5028226;28;20624;-77
2023/08/05 00:44:18;;;;;;;15.60;14.43;;;15.90;99.90;;;;;;5039477;28;20204;-77
2023/08/05 00:46:45;;;;;;;16.63;15.33;;;15.90;99.90;;;;;;5027791;28;20222;-77
2023/08/05 00:49:12;;;;;;;15.60;14.40;;;15.90;99.90;;;;;;5021162;28;20235;-77
2023/08/05 00:51:39;;;;;;;16.43;15.13;;;15.80;99.90;;;;;;5018219;28;20184;-77
2023/08/05 00:54:07;;;;;;;16.50;15.20;;;15.80;99.90;;;;;;5022775;28;20207;-77
2023/08/05 00:56:34;;;;;;;17.23;15.63;;;15.90;99.90;;;;;;5022457;28;20222;-77
2023/08/05 00:59:02;;;;;;;17.23;15.83;;;15.80;99.90;;;;;;5019650;28;20223;-77
2023/08/05 01:01:29;;;;;;;17.13;15.73;;;15.80;99.90;;;;;;5026251;28;20226;-77
2023/08/05 01:03:56;;;;;;;17.03;15.60;;;15.80;99.90;;;;;;5021549;28;20199;-77
2023/08/05 01:06:25;;;;;;;16.50;15.20;;;15.70;99.90;;;;;;5026820;28;20192;-77
2023/08/05 01:08:53;;;;;;;15.73;14.60;;;15.70;99.90;;;;;;5017716;28;20228;-77
2023/08/05 01:11:20;;;;;;;15.80;14.60;;;15.70;99.90;;;;;;5019657;28;20202;-77
2023/08/05 01:13:48;;;;;;;16.23;14.83;;;15.60;99.90;;;;;;5024301;28;20230;-77
2023/08/05 01:16:16;;;;;;;15.90;14.70;;;15.60;99.90;;;;;;5024922;28;20737;-77
2023/08/05 01:18:44;;;;;;;16.70;15.50;;;15.60;99.90;;;;;;5027166;28;20218;-77
2023/08/05 01:21:18;;;;;;;15.67;14.57;;;15.60;99.90;;;;;;5026651;28;20207;-78
2023/08/05 01:23:56;;;;;;;16.20;14.93;;;15.60;99.90;;;;;;5035609;28;20232;-77
2023/08/05 01:26:25;;;;;;;16.53;15.23;;;15.60;99.90;;;;;;5024459;28;20277;-77
2023/08/05 01:28:53;;;;;;;16.50;15.10;;;15.50;99.90;;;;;;5014956;28;20208;-77
2023/08/05 01:31:20;;;;;;;16.17;14.80;;;15.50;99.90;;;;;;5024223;28;20228;-77
2023/08/05 01:33:48;;;;;;;16.73;15.33;;;15.50;99.90;;;;;;5020461;28;20202;-77
2023/08/05 01:36:22;;;;;;;16.23;15.03;;;15.50;99.90;;;;;;5023885;28;20216;-77
2023/08/05 01:38:50;;;;;;;16.37;15.03;;;15.50;99.90;;;;;;5026930;28;20225;-77
2023/08/05 01:41:17;;;;;;;15.70;14.40;;;15.60;99.90;;;;;;5029903;28;20196;-77
2023/08/05 01:43:45;;;;;;;16.93;15.53;;;15.50;99.90;;;;;;5039096;28;20234;-78
2023/08/05 01:46:12;;;;;;;16.13;14.93;;;15.50;99.90;;;;;;5043174;28;20217;-77
2023/08/05 01:48:39;;;;;;;16.53;15.33;;;15.60;99.90;;;;;;5021757;28;20237;-77
2023/08/05 01:51:06;;;;;;;15.77;14.57;;;15.60;99.90;;;;;;5017164;28;20205;-77
2023/08/05 01:53:34;;;;;;;15.60;14.40;;;15.60;99.90;;;;;;5022793;28;20230;-77
2023/08/05 01:56:01;;;;;;;15.50;14.30;;;15.60;99.90;;;;;;5029949;28;20211;-77
2023/08/05 01:58:27;;;;;;;16.20;14.87;;;15.60;99.90;;;;;;5033440;28;20228;-77
2023/08/05 02:00:55;;;;;;;16.53;15.23;;;15.60;99.90;;;;;;5029487;28;20720;-77
2023/08/05 02:03:23;;;;;;;15.93;14.63;;;15.60;99.90;;;;;;5026780;28;20192;-77
2023/08/05 02:05:50;;;;;;;15.50;14.20;;;15.50;99.90;;;;;;5044449;28;20206;-77
2023/08/05 02:08:17;;;;;;;15.40;14.20;;;15.60;99.90;;;;;;5024347;28;20212;-77
2023/08/05 02:10:43;;;;;;;15.93;14.70;;;15.50;99.90;;;;;;5027354;28;20202;-77
2023/08/05 02:13:10;;;;;;;15.93;14.67;;;15.50;99.90;;;;;;5022327;28;20203;-77
2023/08/05 02:15:37;;;;;;;15.60;14.40;;;15.50;99.90;;;;;;5032368;28;20210;-77
2023/08/05 02:18:05;;;;;;;15.47;14.27;;;15.50;99.90;;;;;;5022600;28;20219;-77
2023/08/05 02:20:32;;;;;;;16.47;15.00;;;15.50;99.90;;;;;;5027593;28;20202;-77
2023/08/05 02:22:59;;;;;;;16.03;14.83;;;15.40;99.90;;;;;;5027749;28;20263;-77
2023/08/05 02:25:25;;;;;;;16.03;14.63;;;15.40;99.90;;;;;;5027615;28;20202;-77
2023/08/05 02:27:52;;;;;;;15.57;14.37;;;15.40;99.90;;;;;;5029709;28;20190;-78
2023/08/05 02:30:19;;;;;;;15.53;14.33;;;15.40;99.90;;;;;;5031103;28;20218;-77
2023/08/05 02:32:46;;;;;;;16.37;14.97;;;15.40;99.90;;;;;;5027390;28;20665;-77
2023/08/05 02:35:15;;;;;;;15.10;14.00;;;15.40;99.90;;;;;;5023807;28;20220;-77
2023/08/05 02:37:41;;;;;;;14.77;13.67;;;15.40;99.90;;;;;;5040799;28;20202;-77
2023/08/05 02:40:10;;;;;;;15.27;14.03;;;15.40;99.90;;;;;;5045000;28;20267;-77
2023/08/05 02:42:38;;;;;;;16.37;15.07;;;15.40;99.90;;;;;;5026998;28;20255;-77
2023/08/05 02:45:06;;;;;;;15.53;14.33;;;15.40;99.90;;;;;;5027585;28;20246;-77
2023/08/05 02:47:33;;;;;;;15.20;14.00;;;15.40;99.90;;;;;;5017223;28;20259;-77
2023/08/05 02:50:00;;;;;;;15.20;13.73;;;15.30;99.90;;;;;;5039656;28;20636;-77
2023/08/05 02:52:28;;;;;;;14.77;13.63;;;15.30;99.90;;;;;;5028731;28;20468;-77
2023/08/05 02:54:55;;;;;;;16.17;14.50;;;15.30;99.90;;;;;;5029112;28;20206;-77
2023/08/05 02:57:21;;;;;;;15.37;14.17;;;15.30;99.90;;;;;;5021234;28;20202;-78
2023/08/05 02:59:48;;;;;;;15.50;14.20;;;15.30;99.90;;;;;;5025194;28;20224;-77
2023/08/05 03:02:15;;;;;;;14.87;13.77;;;15.30;99.90;;;;;;5017243;28;20680;-78
2023/08/05 03:04:42;;;;;;;15.00;13.83;;;15.30;99.90;;;;;;5023657;28;20256;-78
2023/08/05 03:07:08;;;;;;;15.07;13.97;;;15.30;99.90;;;;;;5049701;28;20201;-78
2023/08/05 03:09:37;;;;;;;14.83;13.73;;;15.30;99.90;;;;;;5021434;28;20255;-78
2023/08/05 03:12:07;;;;;;;14.50;13.30;;;15.30;99.90;;;;;;5026539;28;20202;-79
2023/08/05 03:14:34;;;;;;;14.27;13.27;;;15.30;99.90;;;;;;5034795;28;20210;-80
2023/08/05 03:17:04;;;;;;;13.60;12.70;;;15.30;99.90;;;;;;5031748;28;20215;-79
2023/08/05 03:19:32;;;;;;;14.70;13.60;;;15.20;99.90;;;;;;5025363;28;20743;-78
2023/08/05 03:21:58;;;;;;;13.97;12.97;;;15.20;99.90;;;;;;5030721;28;20686;-78
2023/08/05 03:24:25;;;;;;;14.20;13.20;;;15.30;99.90;;;;;;5024735;28;20201;-80
2023/08/05 03:26:55;;;;;;;14.67;13.57;;;15.20;99.90;;;;;;5033295;28;20227;-80
2023/08/05 03:29:23;;;;;;;14.20;13.20;;;15.20;99.90;;;;;;5025682;28;20290;-79
2023/08/05 03:31:51;;;;;;;15.63;14.57;;;15.20;99.90;;;;;;5027000;28;20210;-79
2023/08/05 03:34:23;;;;;;;14.87;13.77;;;15.20;99.90;;;;;;5015715;28;20209;-79
2023/08/05 03:36:52;;;;;;;15.33;14.13;;;15.20;99.90;;;;;;5025695;28;20231;-79
2023/08/05 03:39:19;;;;;;;14.33;13.27;;;15.20;99.90;;;;;;5029212;28;20248;-79
2023/08/05 03:41:46;;;;;;;14.87;13.87;;;15.20;99.90;;;;;;5031518;28;20197;-79
2023/08/05 03:44:15;;;;;;;14.83;13.73;;;15.20;99.90;;;;;;5024459;28;20289;-79
2023/08/05 03:46:42;;;;;;;14.37;13.37;;;15.20;99.90;;;;;;5023694;28;20645;-79
2023/08/05 03:49:09;;;;;;;14.80;13.73;;;15.20;99.90;;;;;;5026037;28;20218;-79
2023/08/05 03:51:36;;;;;;;15.50;14.40;;;15.20;99.90;;;;;;5025525;28;20198;-79
2023/08/05 03:54:06;;;;;;;15.00;14.00;;;15.20;99.90;;;;;;5014877;28;20202;-79
2023/08/05 03:56:33;;;;;;;15.07;14.07;;;15.20;99.90;;;;;;5029684;28;20222;-79
2023/08/05 03:59:01;;;;;;;14.90;13.90;;;15.20;99.90;;;;;;5021732;28;20295;-79
2023/08/05 04:01:32;;;;;;;14.83;13.80;;;15.20;99.90;;;;;;5030899;28;20571;-80
2023/08/05 04:03:59;;;;;;;14.50;13.50;;;15.20;99.90;;;;;;5025800;28;20301;-79
2023/08/05 04:06:26;;;;;;;14.30;13.33;;;15.20;99.90;;;;;;5032170;28;20195;-79
2023/08/05 04:08:54;;;;;;;14.00;13.10;;;15.20;99.90;;;;;;5027919;28;20316;-80
2023/08/05 04:11:21;;;;;;;14.23;13.23;;;15.20;99.90;;;;;;5017381;28;20196;-79
2023/08/05 04:13:50;;;;;;;14.20;13.20;;;15.10;99.90;;;;;;5022643;28;20226;-79
2023/08/05 04:16:17;;;;;;;14.07;13.13;;;15.10;99.90;;;;;;5039648;28;20574;-77
2023/08/05 04:18:48;;;;;;;14.93;13.73;;;15.10;99.90;;;;;;5019427;28;20265;-77
2023/08/05 04:21:15;;;;;;;14.80;13.60;;;15.10;99.90;;;;;;5031443;28;20206;-78
2023/08/05 04:23:42;;;;;;;14.73;13.73;;;15.10;99.90;;;;;;5030889;28;20206;-78
2023/08/05 04:26:09;;;;;;;14.00;13.07;;;15.10;99.90;;;;;;5035598;28;20249;-78
2023/08/05 04:28:36;;;;;;;14.43;13.37;;;15.10;99.90;;;;;;5017670;28;20220;-77
2023/08/05 04:31:03;;;;;;;14.87;13.77;;;15.10;99.90;;;;;;5017447;28;20204;-77
2023/08/05 04:33:31;;;;;;;14.53;13.53;;;15.10;99.90;;;;;;5015521;28;20194;-78
2023/08/05 04:36:00;;;;;;;14.80;13.70;;;15.10;99.90;;;;;;5031325;28;20222;-78
2023/08/05 04:38:26;;;;;;;14.40;13.43;;;15.10;99.90;;;;;;5021883;28;20231;-76
2023/08/05 04:40:53;;;;;;;14.20;13.20;;;15.10;99.90;;;;;;5031052;28;20746;-79
2023/08/05 04:43:20;;;;;;;14.37;13.37;;;15.10;99.90;;;;;;5017026;28;20459;-77
2023/08/05 04:45:50;;;;;;;13.90;12.90;;;15.10;99.90;;;;;;5020794;28;20198;-78
2023/08/05 04:48:17;;;;;;;12.80;11.90;;;15.10;99.90;;;;;;5040174;28;20733;-80
2023/08/05 04:50:44;;;;;;;14.67;13.67;;;15.10;99.90;;;;;;5046933;28;20199;-79
2023/08/05 04:53:13;;;;;;;14.27;13.27;;;15.10;99.90;;;;;;5026223;28;20206;-80
2023/08/05 04:55:40;;;;;;;14.63;13.63;;;15.10;99.90;;;;;;5027322;28;20199;-80
2023/08/05 04:58:08;;;;;;;14.73;13.73;;;15.00;99.90;;;;;;5025213;28;20210;-80
2023/08/05 05:00:35;;;;;;;14.03;13.03;;;15.00;99.90;;;;;;5021082;28;20220;-80
2023/08/05 05:03:02;;;;;;;14.30;13.30;;;15.00;99.90;;;;;;5026422;28;20206;-79
2023/08/05 05:05:29;;;;;;;14.70;13.57;;;15.10;99.90;;;;;;5039590;28;20229;-78
2023/08/05 05:07:55;;;;;;;14.97;13.87;;;15.00;99.90;;;;;;5026598;28;20583;-78
2023/08/05 05:10:27;;;;;;;14.23;13.23;;;15.00;99.90;;;;;;5014074;28;20289;-85
2023/08/05 05:12:53;;;;;;;14.93;13.83;;;15.10;99.90;;;;;;5020157;28;20205;-80
2023/08/05 05:15:21;;;;;;;15.33;14.13;;;15.10;99.90;;;;;;5024640;28;20211;-79
2023/08/05 05:17:50;;;;;;;14.77;13.67;;;15.10;99.90;;;;;;5031846;28;20245;-79
2023/08/05 05:20:17;;;;;;;13.90;13.00;;;15.10;99.90;;;;;;5031427;28;20278;-80
2023/08/05 05:22:44;;;;;;;14.77;13.77;;;15.20;99.90;;;;;;5023008;28;20585;-80
2023/08/05 05:25:10;;;;;;;14.50;13.50;;;15.20;99.90;;;;;;5027732;28;20207;-80
2023/08/05 05:27:39;;;;;;;14.47;13.47;;;15.30;99.90;;;;;;5023765;28;20199;-81
2023/08/05 05:30:06;;;;;;;15.00;14.00;;;15.40;99.90;;;;;;5042487;28;20225;-81
2023/08/05 05:32:33;;;;;;;14.50;13.40;;;15.40;99.90;;;;;;5027957;28;20431;-79
2023/08/05 05:35:00;;;;;;;16.20;15.00;;;15.60;99.90;;;;;;5027127;28;20207;-79
2023/08/05 05:37:27;;;;;;;14.40;13.40;;;15.80;99.90;;;;;;5032378;28;20219;-79
2023/08/05 05:39:54;;;;;;;14.37;13.37;;;16.00;99.90;;;;;;5045911;28;20224;-80
2023/08/05 05:42:24;;;;;;;14.20;13.20;;;16.20;99.90;;;;;;5027573;28;20629;-81
2023/08/05 05:44:53;;;;;;;13.77;12.87;;;16.40;99.90;;;;;;5032887;28;20195;-79
2023/08/05 05:47:20;;;;;;;15.07;14.07;;;16.50;99.90;;;;;;5034192;28;20211;-80
2023/08/05 05:49:47;;;;;;;14.13;13.17;;;16.60;99.90;;;;;;5030081;28;20215;-80
2023/08/05 05:52:16;;;;;;;13.00;12.10;;;16.70;99.90;;;;;;5034238;28;20204;-79
2023/08/05 05:54:43;;;;;;;9.37;8.67;;;16.80;99.90;;;;;;5032980;28;20218;-81
2023/08/05 05:57:10;;;;;;;13.87;12.87;;;16.90;99.90;;;;;;5033617;28;20217;-80
2023/08/05 05:59:38;;;;;;;12.77;11.87;;;16.90;99.90;;;;;;5030086;28;20490;-80
2023/08/05 06:02:07;;;;;;;12.13;11.30;;;16.90;99.90;;;;;;5023713;28;20296;-80
2023/08/05 06:04:34;;;;;;;13.50;12.40;;;16.90;99.90;;;;;;5032420;28;20291;-81
2023/08/05 06:07:04;;;;;;;13.43;12.43;;;16.80;99.90;;;;;;5026828;28;20203;-80
2023/08/05 06:09:32;;;;;;;13.30;12.27;;;16.80;99.90;;;;;;5025705;28;20227;-76
2023/08/05 06:11:59;;;;;;;13.40;12.30;;;16.80;99.90;;;;;;5026004;28;20236;-80
2023/08/05 06:14:26;;;;;;;13.77;12.87;;;16.80;99.90;;;;;;5034105;28;20211;-82
2023/08/05 06:19:42;;;;;;;12.80;11.80;;;16.90;99.90;;;;;;5018166;28;20298;-78
2023/08/05 06:22:08;;;;;;;14.37;13.23;;;16.80;99.90;;;;;;5016911;28;20213;-77
2023/08/05 06:24:35;;;;;;;13.57;12.67;;;16.80;99.90;;;;;;5020173;28;20200;-77
2023/08/05 06:27:02;;;;;;;12.97;12.03;;;16.80;99.90;;;;;;5022313;28;20633;-77
2023/08/05 06:29:29;;;;;;;12.90;12.00;;;16.80;99.90;;;;;;5022563;28;20474;-77
2023/08/05 06:31:56;;;;;;;14.07;12.90;;;16.90;99.90;;;;;;5034077;28;20204;-77
2023/08/05 06:34:23;;;;;;;13.57;12.30;;;16.90;99.90;;;;;;5017353;28;20669;-77
2023/08/05 06:36:52;;;;;;;13.30;12.33;;;16.90;99.90;;;;;;5018156;28;20215;-78
2023/08/05 06:39:18;;;;;;;14.03;12.93;;;17.00;99.90;;;;;;5018214;28;20761;-77
2023/08/05 06:41:45;;;;;;;13.07;12.17;;;17.10;99.90;;;;;;5022160;28;20196;-77
2023/08/05 06:44:12;;;;;;;13.10;12.20;;;17.20;99.90;;;;;;5023670;28;20254;-77
2023/08/05 06:46:39;;;;;;;12.77;11.87;;;17.20;99.90;;;;;;5023853;28;20199;-77
2023/08/05 06:49:06;;;;;;;8.07;7.30;;;17.30;99.90;;;;;;5039575;28;20231;-77
2023/08/05 06:51:33;;;;;;;12.73;11.67;;;17.60;99.90;;;;;;5021578;28;20288;-77
2023/08/05 06:54:01;;;;;;;6.97;6.27;;;17.80;99.90;;;;;;5021167;28;20267;-77
2023/08/05 06:56:28;;;;;;;6.73;5.77;;;17.90;99.90;;;;;;5012747;28;20229;-77
2023/08/05 06:58:55;;;;;;;7.97;7.23;;;18.00;99.90;;;;;;5020423;28;20218;-77
2023/08/05 07:01:22;;;;;;;6.20;5.60;;;18.20;99.90;;;;;;5021232;28;20301;-77
2023/08/05 07:03:51;;;;;;;9.30;8.50;;;18.40;99.90;;;;;;5024838;28;20247;-79
2023/08/05 07:06:20;;;;;;;12.07;11.17;;;18.50;99.90;;;;;;5019988;28;20208;-81
2023/08/05 07:08:47;;;;;;;12.30;11.27;;;18.60;99.90;;;;;;5025687;28;20225;-80
2023/08/05 07:11:15;;;;;;;11.23;10.43;;;18.70;99.90;;;;;;5027365;28;20190;-81
2023/08/05 07:13:46;;;;;;;13.13;12.13;;;19.00;99.90;;;;;;5027085;28;20259;-85
2023/08/05 07:16:12;;;;;;;10.93;6.63;;;19.50;99.90;;;;;;5026513;28;20221;-80
2023/08/05 07:18:39;;;;;;;10.97;10.17;;;20.00;99.90;;;;;;5024301;28;20223;-80
2023/08/05 07:21:06;;;;;;;9.70;8.97;;;20.50;99.90;;;;;;5027886;28;20207;-78
2023/08/05 07:23:33;;;;;;;11.60;10.80;;;20.60;99.90;;;;;;5022315;28;20582;-78
2023/08/05 07:26:01;;;;;;;6.27;5.23;;;20.70;99.90;;;;;;5035058;28;20247;-78
2023/08/05 07:28:29;;;;;;;5.50;4.43;;;20.30;99.90;;;;;;5023591;28;20639;-78
2023/08/05 07:31:04;;;;;;;6.03;5.00;;;20.00;99.90;;;;;;5022882;28;20197;-77
2023/08/05 07:33:31;;;;;;;7.60;6.93;;;19.80;99.90;;;;;;5031191;28;20207;-77
2023/08/05 07:35:58;;;;;;;7.87;7.07;;;20.10;99.90;;;;;;5029289;28;20208;-77
2023/08/05 07:38:25;;;;;;;7.10;5.80;;;20.40;99.90;;;;;;5023240;28;20293;-77
2023/08/05 07:40:55;;;;;;;6.40;5.63;;;20.20;99.90;;;;;;5029607;28;20195;-82
2023/08/05 07:43:23;;;;;;;11.07;10.27;;;19.80;99.90;;;;;;5039617;28;20192;-80
2023/08/05 07:45:52;;;;;;;11.73;10.87;;;19.50;99.90;;;;;;5023355;28;20204;-81
2023/08/05 07:48:19;;;;;;;10.63;9.93;;;19.40;99.90;;;;;;5024940;28;20219;-80
2023/08/05 07:50:47;;;;;;;10.70;9.93;;;19.40;99.90;;;;;;5025618;28;20226;-82
2023/08/05 07:53:18;;;;;;;6.43;5.83;;;19.40;99.90;;;;;;5023318;28;20713;-81
2023/08/05 07:55:45;;;;;;;5.60;5.10;;;19.30;99.90;;;;;;5031970;28;20666;-79
2023/08/05 07:58:12;;;;;;;7.47;6.77;;;19.10;99.90;;;;;;5025554;28;20341;-77
2023/08/05 08:00:39;;;;;;;10.47;9.50;;;19.00;99.90;;;;;;5024598;28;20207;-79
2023/08/05 08:03:08;;;;;;;11.43;10.43;;;19.10;99.90;;;;;;5022922;28;20234;-77
2023/08/05 08:05:34;;;;;;;6.57;5.17;;;19.10;99.90;;;;;;5023043;28;20205;-82
2023/08/05 08:08:01;;;;;;;6.77;5.23;;;19.30;99.90;;;;;;5041567;28;20200;-79
2023/08/05 08:10:28;;;;;;;8.80;5.93;;;19.40;99.90;;;;;;5031851;28;20210;-78
2023/08/05 08:12:55;;;;;;;5.33;4.80;;;19.40;99.90;;;;;;5024226;28;20196;-79
2023/08/05 08:15:22;;;;;;;5.83;5.00;;;19.50;99.90;;;;;;5023721;28;20204;-79
2023/08/05 08:17:49;;;;;;;6.20;5.20;;;20.00;99.90;;;;;;5019843;28;20221;-78
2023/08/05 08:20:17;;;;;;;7.80;7.10;;;20.40;99.90;;;;;;5022254;28;20217;-79
2023/08/05 08:22:44;;;;;;;10.10;9.40;;;20.50;99.90;;;;;;5022582;28;20200;-79
2023/08/05 08:25:10;;;;;;;5.57;5.07;;;20.50;99.90;;;;;;5024066;28;20200;-79
2023/08/05 08:27:37;;;;;;;4.80;4.33;;;20.30;99.90;;;;;;5031213;28;20254;-78
2023/08/05 08:30:06;;;;;;;8.60;4.67;;;20.10;99.90;;;;;;5024640;28;20570;-79
2023/08/05 08:32:32;;;;;;;7.13;6.57;;;19.90;99.90;;;;;;5035216;28;20204;-79
2023/08/05 08:34:59;;;;;;;9.83;9.23;;;19.90;99.90;;;;;;5023115;28;20197;-79
2023/08/05 08:37:27;;;;;;;9.77;8.97;;;20.00;99.90;;;;;;5025203;28;20223;-79
2023/08/05 08:39:54;;;;;;;10.53;9.73;;;20.20;99.90;;;;;;5029398;28;20223;-79
2023/08/05 08:42:21;;;;;;;10.07;9.27;;;20.40;99.90;;;;;;5022248;28;20208;-80
2023/08/05 08:44:50;;;;;;;9.50;8.80;;;20.40;99.90;;;;;;5031379;28;20200;-78
2023/08/05 08:47:17;;;;;;;6.17;5.57;;;20.50;99.90;;;;;;5026034;28;20199;-79
2023/08/05 08:49:47;;;;;;;7.17;6.43;;;20.60;99.90;;;;;;5016683;28;20215;-79
2023/08/05 08:52:17;;;;;;;4.97;4.47;;;21.10;99.90;;;;;;5021547;28;20204;-80
2023/08/05 08:54:46;;;;;;;7.17;4.43;;;21.40;99.90;;;;;;5025098;28;20597;-80
2023/08/05 08:57:13;;;;;;;5.40;4.50;;;21.20;99.90;;;;;;5023002;28;20215;-79
2023/08/05 08:59:40;;;;;;;9.67;8.97;;;21.10;99.90;;;;;;5027255;28;20314;-82
2023/08/05 09:02:12;;;;;;;5.17;4.67;;;21.50;99.90;;;;;;5016932;28;20257;-83
2023/08/05 09:04:41;;;;;;;10.50;9.70;;;22.40;99.90;;;;;;5025471;28;20196;-78
2023/08/05 09:07:10;;;;;;;8.20;7.60;;;23.10;99.90;;;;;;5019785;28;20204;-79
2023/08/05 09:09:37;;;;;;;7.90;7.13;;;23.90;99.90;;;;;;5022163;23;20235;-76
2023/08/05 09:12:21;;;;;;;7.07;6.40;;;23.80;99.90;;;;;;5025969;28;20207;-81
2023/08/05 09:14:53;;;;;;;6.27;4.20;;;24.30;99.90;;;;;;5007078;28;20200;-75
2023/08/05 09:17:20;;;;;;;5.40;4.53;;;24.60;99.90;;;;;;4990517;28;20211;-75
2023/08/05 09:19:47;;;;;;;4.50;4.10;;;24.80;99.90;;;;;;4982051;28;20229;-76
2023/08/05 09:22:14;;;;;;;6.40;5.90;;;24.60;99.90;;;;;;4979056;28;20232;-75
2023/08/05 09:24:41;;;;;;;6.03;4.67;;;24.70;99.90;;;;;;4977992;28;20194;-75
2023/08/05 09:27:09;;;;;;;6.53;5.93;;;24.70;99.90;;;;;;4981247;28;20222;-75
2023/08/05 09:29:36;;;;;;;6.13;5.70;;;24.80;99.90;;;;;;4984551;28;20217;-76
2023/08/05 09:32:04;;;;;;;5.47;5.00;;;25.00;99.90;;;;;;4984521;28;20280;-75
2023/08/05 09:34:35;;;;;;;6.10;4.43;;;25.20;99.90;;;;;;4984012;28;20287;-75
2023/08/05 09:37:03;;;;;;;8.83;8.13;;;25.40;99.90;;;;;;4975846;28;20202;-76
2023/08/05 09:39:44;;;;;;;6.40;5.90;;;25.60;99.90;;;;;;4979565;28;20233;-76
2023/08/05 09:42:21;;;;;;;6.87;6.27;;;25.10;99.90;;;;;;4976207;28;20228;-78
2023/08/05 09:44:49;;;;;;;8.37;7.70;;;24.60;99.90;;;;;;4987120;28;20200;-78
2023/08/05 09:47:20;;;;;;;9.60;8.80;;;24.30;99.90;;;;;;4991274;28;20207;-76
2023/08/05 09:49:49;;;;;;;8.87;8.23;;;23.70;99.90;;;;;;4988689;28;20221;-75
2023/08/05 09:52:17;;;;;;;8.30;7.60;;;23.30;99.90;;;;;;4984097;28;20277;-75
2023/08/05 09:54:48;;;;;;;9.00;8.40;;;23.00;99.90;;;;;;4984160;28;20280;-75
2023/08/05 09:57:15;;;;;;;9.83;9.23;;;22.90;99.90;;;;;;4987918;28;20225;-75
2023/08/05 09:59:43;;;;;;;7.10;6.50;;;22.80;99.90;;;;;;4980862;28;20218;-75
2023/08/05 10:02:13;;;;;;;5.13;4.50;;;22.70;99.90;;;;;;4999505;28;20296;-74
2023/08/05 10:04:41;;;;;;;9.27;8.57;;;22.50;99.90;;;;;;4980021;28;20216;-75
2023/08/05 10:07:08;;;;;;;8.90;8.30;;;22.20;99.90;;;;;;4980192;28;20661;-76
2023/08/05 10:09:35;;;;;;;6.63;6.07;;;22.40;99.90;;;;;;4991461;28;20280;-74
2023/08/05 10:12:04;;;;;;;4.73;4.07;;;22.60;99.90;;;;;;4978050;28;20201;-75
2023/08/05 10:14:31;;;;;;;6.13;4.20;;;22.70;99.90;;;;;;4983813;28;20199;-75
2023/08/05 10:17:00;;;;;;;5.50;5.00;;;22.80;99.90;;;;;;4983288;28;20205;-75
2023/08/05 10:19:31;;;;;;;5.33;4.27;;;22.80;99.90;;;;;;4979981;28;20582;-75
2023/08/05 10:22:08;;;;;;;4.07;3.67;;;23.00;99.90;;;;;;4992599;28;20197;-75
2023/08/05 10:24:50;;;;;;;4.10;3.57;;;23.10;99.90;;;;;;4983868;28;20189;-76
2023/08/05 10:27:17;;;;;;;3.70;3.40;;;23.20;99.90;;;;;;4982634;28;20682;-75
2023/08/05 10:29:52;;;;;;;8.13;7.43;;;23.30;99.90;;;;;;4981231;28;20312;-75
2023/08/05 10:32:29;;;;;;;8.40;7.80;;;23.40;99.90;;;;;;4983811;28;20267;-75
2023/08/05 10:35:29;;;;;;;4.20;3.33;;;23.50;99.90;;;;;;4991847;28;20275;-75
2023/08/05 10:38:07;;;;;;;6.43;5.93;;;23.50;99.90;;;;;;4979986;28;20229;-75
2023/08/05 10:40:41;;;;;;;5.77;5.37;;;23.50;99.90;;;;;;4978619;28;20193;-75
2023/08/05 10:43:10;;;;;;;3.80;3.43;;;23.60;99.90;;;;;;4978103;28;20445;-76
2023/08/05 10:45:41;;;;;;;3.83;3.37;;;23.60;99.90;;;;;;4983280;28;20194;-75
2023/08/05 10:48:10;;;;;;;4.90;3.80;;;23.50;99.90;;;;;;4982979;28;20248;-75
2023/08/05 10:50:39;;;;;;;3.07;2.87;;;23.20;99.90;;;;;;4989592;28;20201;-75
2023/08/05 10:53:08;;;;;;;4.37;3.30;;;23.30;99.90;;;;;;4982974;28;20194;-75
2023/08/05 10:55:47;;;;;;;5.37;3.20;;;23.30;99.90;;;;;;4989791;28;20633;-75
2023/08/05 10:58:14;;;;;;;4.37;3.20;;;23.30;99.90;;;;;;4983171;28;20305;-75
2023/08/05 11:00:42;;;;;;;4.70;3.50;;;23.10;99.90;;;;;;4979481;28;20252;-75
2023/08/05 11:03:31;;;;;;;3.60;3.27;;;23.20;99.90;;;;;;4997917;28;20197;-75
2023/08/05 11:06:01;;;;;;;3.80;3.30;;;23.40;99.90;;;;;;4983156;28;20201;-75
2023/08/05 11:08:28;;;;;;;3.43;3.13;;;23.40;99.90;;;;;;4982877;28;20214;-75
2023/08/05 11:10:55;;;;;;;3.47;3.10;;;23.40;99.90;;;;;;4986400;28;20206;-76
2023/08/05 11:13:22;;;;;;;3.33;3.03;;;23.50;99.90;;;;;;4982963;28;20198;-75
2023/08/05 11:16:08;;;;;;;3.37;2.97;;;23.50;99.90;;;;;;4989905;28;20202;-75
2023/08/05 11:18:37;;;;;;;5.47;5.07;;;23.70;99.90;;;;;;4985843;28;20604;-75
2023/08/05 11:21:10;;;;;;;4.17;3.87;;;23.90;99.90;;;;;;4978901;28;20225;-80
2023/08/05 11:23:39;;;;;;;3.70;3.40;;;23.70;99.90;;;;;;4992802;28;20196;-78
2023/08/05 11:26:07;;;;;;;5.13;4.73;;;23.30;99.90;;;;;;4986099;28;20205;-78
2023/08/05 11:28:42;;;;;;;5.17;4.67;;;23.30;99.90;;;;;;4980229;28;20218;-78
2023/08/05 11:31:09;;;;;;;6.83;6.27;;;23.70;99.90;;;;;;4987548;28;20314;-78
2023/08/05 11:33:37;;;;;;;6.33;5.70;;;24.10;99.90;;;;;;4981757;28;20249;-78
2023/08/05 11:36:05;;;;;;;6.20;5.80;;;24.20;99.90;;;;;;4993130;28;20264;-78
2023/08/05 11:38:31;;;;;;;6.63;6.17;;;24.30;99.90;;;;;;4989172;28;20217;-77
2023/08/05 11:40:58;;;;;;;6.20;5.80;;;24.30;99.90;;;;;;4995344;28;20691;-78
2023/08/05 11:43:25;;;;;;;4.07;3.67;;;24.50;99.90;;;;;;4995390;28;20205;-74
2023/08/05 11:45:55;;;;;;;5.57;5.07;;;24.80;99.90;;;;;;4977038;28;20673;-74
2023/08/05 11:48:23;;;;;;;7.03;6.50;;;25.00;99.90;;;;;;4972449;28;20209;-75
2023/08/05 11:50:56;;;;;;;6.63;6.13;;;24.80;99.90;;;;;;4989536;28;20201;-79
2023/08/05 11:53:23;;;;;;;4.60;4.30;;;24.70;99.90;;;;;;4986695;28;20225;-78
2023/08/05 11:55:50;;;;;;;4.10;3.80;;;24.80;99.90;;;;;;4978244;28;20205;-79
2023/08/05 11:58:18;;;;;;;6.53;5.90;;;24.70;99.90;;;;;;4975562;28;20217;-79
2023/08/05 12:00:46;;;;;;;6.30;5.80;;;24.70;99.90;;;;;;4979625;28;20665;-79
2023/08/05 12:03:14;;;;;;;7.97;7.27;;;24.30;99.90;;;;;;4987682;28;20205;-79
2023/08/05 12:05:42;;;;;;;5.67;5.10;;;24.00;99.90;;;;;;4992559;28;20297;-78
2023/08/05 12:08:11;;;;;;;7.63;7.03;;;24.00;99.90;;;;;;5004007;28;20213;-79
2023/08/05 12:10:38;;;;;;;3.57;3.27;;;24.30;99.90;;;;;;4983589;28;20197;-79
2023/08/05 12:13:08;;;;;;;4.70;4.30;;;24.50;99.90;;;;;;4993071;28;20631;-80
2023/08/05 12:15:36;;;;;;;7.60;6.90;;;24.70;99.90;;;;;;4978434;28;20641;-80
2023/08/05 12:18:04;;;;;;;6.23;5.77;;;24.80;99.90;;;;;;4993732;28;20204;-79
2023/08/05 12:20:32;;;;;;;7.37;6.87;;;24.60;99.90;;;;;;4978331;28;20249;-80
2023/08/05 12:22:59;;;;;;;7.83;7.23;;;24.50;99.90;;;;;;4982311;28;20197;-80
2023/08/05 12:25:29;;;;;;;7.47;6.97;;;24.30;99.90;;;;;;4976113;28;20264;-80
2023/08/05 12:27:56;;;;;;;7.20;6.70;;;24.00;99.90;;;;;;4993148;28;20204;-81
2023/08/05 12:30:23;;;;;;;7.07;6.57;;;23.90;99.90;;;;;;4999555;28;20702;-81
2023/08/05 12:32:51;;;;;;;7.90;7.30;;;23.80;99.90;;;;;;4992358;28;20208;-81
2023/08/05 12:35:18;;;;;;;8.53;7.93;;;23.90;99.90;;;;;;5004988;28;20603;-82
2023/08/05 12:37:45;;;;;;;8.03;7.53;;;23.90;99.90;;;;;;4981803;28;20201;-80
2023/08/05 12:40:12;;;;;;;7.93;7.43;;;23.80;99.90;;;;;;4974184;28;20225;-77
2023/08/05 12:42:41;;;;;;;7.10;6.60;;;23.70;99.90;;;;;;4975505;28;20264;-79